Time;durP1;ratioP1;P1;durP2;ratioP2;P2;SDS_P1;SDS_P2;PMS_P1;PMS_P2;Temp;Humidity;BMP_temperature;BMP_pressure;BME280_temperature;BME280_humidity;BME280_pressure;Samples;Min_cycle;Max_cycle;Signal;HPM_P1;HPM_P2
2022/03/08 00:01:44;;;;;;;12.73;4.55;;;;;;;0.65;75.40;101335.08;1678998;84;25840;-77
2022/03/08 00:04:10;;;;;;;12.03;4.40;;;;;;;0.60;75.47;101331.91;1677527;85;25845;-77
2022/03/08 00:06:38;;;;;;;10.58;4.08;;;;;;;0.55;75.48;101335.35;1686945;84;28430;-77
2022/03/08 00:09:04;;;;;;;11.93;4.08;;;;;;;0.50;75.67;101334.81;1692947;83;26485;-78
2022/03/08 00:11:31;;;;;;;10.18;4.60;;;;;;;0.48;75.68;101342.45;1681143;83;25324;-77
2022/03/08 00:13:57;;;;;;;11.68;4.75;;;;;;;0.43;75.78;101348.49;1687046;84;25839;-77
2022/03/08 00:16:23;;;;;;;11.43;4.20;;;;;;;0.38;75.88;101351.47;1685367;83;25800;-78
2022/03/08 00:18:49;;;;;;;11.80;5.05;;;;;;;0.33;76.00;101354.02;1687431;84;27563;-78
2022/03/08 00:21:18;;;;;;;10.98;4.40;;;;;;;0.27;76.07;101357.08;1684984;83;25916;-77
2022/03/08 00:23:45;;;;;;;13.08;4.65;;;;;;;0.24;76.20;101346.27;1674877;85;25991;-77
2022/03/08 00:26:11;;;;;;;10.60;4.53;;;;;;;0.22;76.17;101348.16;1678537;83;25477;-77
2022/03/08 00:28:40;;;;;;;15.13;5.00;;;;;;;0.22;76.26;101344.67;1686724;84;25820;-78
2022/03/08 00:31:07;;;;;;;11.83;4.55;;;;;;;0.21;76.19;101339.05;1712131;81;28297;-78
2022/03/08 00:33:34;;;;;;;10.48;4.10;;;;;;;0.15;76.12;101334.20;1733746;81;26679;-78
2022/03/08 00:36:03;;;;;;;16.93;5.10;;;;;;;0.14;76.19;101330.71;1731036;81;25819;-78
2022/03/08 00:38:29;;;;;;;13.15;5.28;;;;;;;0.14;76.20;101324.59;1732813;81;25893;-78
2022/03/08 00:40:55;;;;;;;13.22;4.90;;;;;;;0.10;76.34;101320.02;1735480;81;25793;-77
2022/03/08 00:43:22;;;;;;;16.77;5.65;;;;;;;0.11;76.30;101323.50;1732590;81;28350;-78
2022/03/08 00:45:48;;;;;;;13.75;4.97;;;;;;;0.09;76.26;101324.05;1732503;81;25830;-77
2022/03/08 00:48:14;;;;;;;11.85;4.12;;;;;;;0.08;76.37;101327.64;1731773;81;25847;-78
2022/03/08 00:50:41;;;;;;;9.78;4.72;;;;;;;0.07;76.40;101332.52;1740565;81;26455;-77
2022/03/08 00:53:07;;;;;;;9.05;4.15;;;;;;;0.07;76.40;101341.74;1733986;81;25646;-77
2022/03/08 00:55:34;;;;;;;9.50;4.62;;;;;;;0.02;76.54;101339.91;1727222;81;27427;-79
2022/03/08 00:58:03;;;;;;;8.28;4.08;;;;;;;-0.03;76.81;101339.74;1738354;81;25821;-77
2022/03/08 01:00:33;;;;;;;12.30;3.90;;;;;;;-0.07;76.88;101350.11;1739704;81;26076;-78
2022/03/08 01:03:01;;;;;;;8.38;4.08;;;;;;;-0.10;76.98;101342.86;1704763;82;26498;-77
2022/03/08 01:05:28;;;;;;;12.15;4.30;;;;;;;-0.11;77.18;101341.19;1697758;83;26196;-77
2022/03/08 01:07:55;;;;;;;10.25;4.20;;;;;;;-0.17;77.36;101338.47;1670884;83;27711;-77
2022/03/08 01:10:23;;;;;;;8.05;3.90;;;;;;;-0.19;77.56;101340.36;1672244;84;26013;-77
2022/03/08 01:12:52;;;;;;;9.25;4.30;;;;;;;-0.24;77.53;101340.30;1699408;83;25804;-77
2022/03/08 01:15:20;;;;;;;9.95;4.47;;;;;;;-0.24;77.66;101338.52;1682004;84;26487;-77
2022/03/08 01:17:48;;;;;;;10.38;4.67;;;;;;;-0.23;77.76;101338.87;1701904;84;26143;-77
2022/03/08 01:20:15;;;;;;;8.98;4.70;;;;;;;-0.25;77.66;101340.77;1688408;83;27445;-77
2022/03/08 01:22:42;;;;;;;13.80;5.45;;;;;;;-0.26;77.69;101332.98;1691496;84;26161;-77
2022/03/08 01:25:11;;;;;;;10.53;4.45;;;;;;;-0.28;77.76;101331.73;1689464;84;25932;-78
2022/03/08 01:27:38;;;;;;;10.93;4.47;;;;;;;-0.31;77.99;101332.42;1693531;84;26154;-77
2022/03/08 01:30:09;;;;;;;13.88;4.17;;;;;;;-0.37;78.10;101325.78;1694873;84;25916;-78
2022/03/08 01:32:35;;;;;;;10.75;4.42;;;;;;;-0.39;78.14;101325.50;1693127;83;27544;-77
2022/03/08 01:35:02;;;;;;;13.48;5.17;;;;;;;-0.45;78.04;101318.83;1693550;84;25920;-77
2022/03/08 01:37:29;;;;;;;11.03;4.67;;;;;;;-0.49;78.12;101317.34;1693448;84;26533;-78
2022/03/08 01:39:56;;;;;;;11.38;5.00;;;;;;;-0.50;78.19;101314.82;1693691;84;25785;-77
2022/03/08 01:42:24;;;;;;;12.13;5.80;;;;;;;-0.52;78.30;101315.39;1693525;84;26041;-78
2022/03/08 01:44:52;;;;;;;11.80;4.75;;;;;;;-0.55;78.28;101313.80;1675728;84;28301;-78
2022/03/08 01:47:22;;;;;;;12.20;4.87;;;;;;;-0.56;78.36;101308.64;1681272;83;26358;-77
2022/03/08 01:49:51;;;;;;;10.98;4.47;;;;;;;-0.58;78.41;101302.64;1678170;83;26586;-78
2022/03/08 01:52:21;;;;;;;11.25;4.75;;;;;;;-0.59;78.44;101305.73;1686799;83;25802;-78
2022/03/08 01:54:49;;;;;;;12.95;5.20;;;;;;;-0.61;78.50;101307.62;1675748;85;25839;-77
2022/03/08 01:57:15;;;;;;;11.60;5.03;;;;;;;-0.59;78.51;101308.36;1670179;84;27491;-77
2022/03/08 01:59:42;;;;;;;9.38;4.40;;;;;;;-0.58;78.41;101314.48;1670264;84;26419;-77
2022/03/08 02:02:09;;;;;;;10.63;5.03;;;;;;;-0.59;78.37;101313.62;1677425;84;25845;-77
2022/03/08 02:04:36;;;;;;;15.32;5.45;;;;;;;-0.56;78.58;101317.85;1696143;83;25871;-78
2022/03/08 02:07:04;;;;;;;12.30;5.10;;;;;;;-0.53;78.46;101319.80;1681040;84;25698;-77
2022/03/08 02:09:31;;;;;;;10.68;5.15;;;;;;;-0.56;78.45;101318.70;1681432;83;27635;-78
2022/03/08 02:11:57;;;;;;;12.00;5.42;;;;;;;-0.57;78.62;101322.72;1677032;84;26693;-78
2022/03/08 02:14:23;;;;;;;9.48;4.95;;;;;;;-0.59;78.49;101320.66;1677056;84;25791;-77
2022/03/08 02:16:50;;;;;;;13.75;4.70;;;;;;;-0.59;78.59;101320.66;1676564;85;25842;-78
2022/03/08 02:19:16;;;;;;;12.15;4.65;;;;;;;-0.61;78.40;101319.92;1680926;83;25895;-78
2022/03/08 02:21:45;;;;;;;16.23;5.22;;;;;;;-0.67;78.40;101323.80;1676708;85;28533;-78
2022/03/08 02:24:11;;;;;;;11.35;5.10;;;;;;;-0.67;78.46;101321.63;1676329;85;25808;-77
2022/03/08 02:26:38;;;;;;;9.53;4.42;;;;;;;-0.66;78.49;101325.47;1681443;84;25818;-77
2022/03/08 02:29:08;;;;;;;9.85;5.03;;;;;;;-0.66;78.42;101329.91;1687399;84;25851;-77
2022/03/08 02:31:35;;;;;;;10.72;4.67;;;;;;;-0.64;78.47;101332.80;1680480;84;25961;-77
2022/03/08 02:34:01;;;;;;;15.93;5.22;;;;;;;-0.63;78.50;101329.23;1676769;84;28240;-78
2022/03/08 02:36:28;;;;;;;9.95;4.65;;;;;;;-0.62;78.44;101325.65;1676344;85;26585;-77
2022/03/08 02:38:54;;;;;;;17.32;6.25;;;;;;;-0.63;78.27;101329.23;1676987;84;25746;-77
2022/03/08 02:41:20;;;;;;;10.30;4.97;;;;;;;-0.66;78.30;101328.10;1684687;84;26370;-78
2022/03/08 02:43:46;;;;;;;9.48;4.35;;;;;;;-0.68;78.11;101329.17;1676688;84;25812;-77
2022/03/08 02:46:13;;;;;;;11.20;4.70;;;;;;;-0.70;78.47;101333.19;1676691;85;27461;-77
2022/03/08 02:48:39;;;;;;;12.93;5.37;;;;;;;-0.70;78.36;101337.59;1677074;85;25897;-77
2022/03/08 02:51:05;;;;;;;14.78;5.58;;;;;;;-0.74;78.36;101337.42;1687416;83;26463;-77
2022/03/08 02:53:32;;;;;;;12.15;4.42;;;;;;;-0.76;78.42;101336.22;1697770;83;25780;-77
2022/03/08 02:55:58;;;;;;;9.30;5.03;;;;;;;-0.77;78.56;101341.12;1687021;83;25770;-78
2022/03/08 02:58:25;;;;;;;11.03;4.75;;;;;;;-0.79;78.77;101345.59;1686602;84;27547;-77
2022/03/08 03:00:51;;;;;;;11.73;5.60;;;;;;;-0.80;78.51;101348.72;1691341;84;25929;-77
2022/03/08 03:03:17;;;;;;;13.83;4.95;;;;;;;-0.83;78.46;101352.84;1694343;84;25901;-77
2022/03/08 03:05:44;;;;;;;12.75;5.42;;;;;;;-0.85;78.51;101353.42;1676321;84;25831;-77
2022/03/08 03:08:10;;;;;;;9.98;5.00;;;;;;;-0.87;78.50;101355.77;1693098;81;25943;-77
2022/03/08 03:10:36;;;;;;;13.65;5.25;;;;;;;-0.88;78.47;101356.22;1683918;83;28556;-78
2022/03/08 03:13:03;;;;;;;10.75;4.92;;;;;;;-0.91;78.46;101358.21;1686979;83;25949;-77
2022/03/08 03:15:30;;;;;;;11.10;5.17;;;;;;;-0.95;78.53;101360.20;1690230;83;25838;-77
2022/03/08 03:17:58;;;;;;;12.18;5.00;;;;;;;-0.94;78.58;101356.61;1696290;83;25865;-77
2022/03/08 03:20:26;;;;;;;10.38;4.72;;;;;;;-0.94;78.65;101359.73;1699343;81;25979;-78
2022/03/08 03:22:53;;;;;;;12.78;5.28;;;;;;;-0.96;78.59;101367.70;1679066;84;27493;-77
2022/03/08 03:25:19;;;;;;;9.98;5.28;;;;;;;-0.97;78.92;101366.48;1696382;83;26000;-78
2022/03/08 03:27:46;;;;;;;12.55;4.78;;;;;;;-0.98;78.92;101372.67;1699061;83;25867;-77
2022/03/08 03:30:16;;;;;;;14.13;5.80;;;;;;;-1.00;78.97;101368.83;1692527;84;26562;-77
2022/03/08 03:32:42;;;;;;;9.78;5.50;;;;;;;-1.00;78.97;101368.83;1675767;84;26054;-77
2022/03/08 03:35:10;;;;;;;13.08;5.30;;;;;;;-1.07;79.46;101368.82;1674731;84;27470;-77
2022/03/08 03:37:37;;;;;;;11.05;5.08;;;;;;;-1.07;79.46;101368.82;1670626;84;26078;-78
2022/03/08 03:40:06;;;;;;;10.80;5.35;;;;;;;-1.09;79.31;101372.51;1677392;84;25848;-77
2022/03/08 03:42:32;;;;;;;9.30;4.55;;;;;;;-1.10;79.46;101370.34;1680834;84;25792;-77
2022/03/08 03:44:58;;;;;;;11.30;5.40;;;;;;;-1.11;79.49;101373.08;1682422;84;25993;-78
2022/03/08 03:47:25;;;;;;;12.03;5.50;;;;;;;-1.19;79.42;101366.95;1677965;84;27462;-77
2022/03/08 03:49:51;;;;;;;12.53;6.75;;;;;;;-1.20;79.56;101369.22;1678257;84;25871;-77
2022/03/08 03:52:17;;;;;;;15.15;5.85;;;;;;;-1.13;79.78;101381.03;1672406;84;25906;-77
2022/03/08 03:54:43;;;;;;;12.37;5.15;;;;;;;-1.16;79.71;101385.18;1678255;84;26440;-77
2022/03/08 03:57:11;;;;;;;11.45;5.10;;;;;;;-1.21;79.54;101372.78;1678661;84;25852;-78
2022/03/08 03:59:39;;;;;;;15.32;5.42;;;;;;;-1.19;79.37;101387.98;1684531;84;27569;-77
2022/03/08 04:02:06;;;;;;;13.78;5.12;;;;;;;-1.20;79.29;101378.42;1654125;85;25841;-77
2022/03/08 04:04:35;;;;;;;10.00;4.65;;;;;;;-1.19;79.34;101374.84;1647615;86;25856;-78
2022/03/08 04:07:01;;;;;;;11.35;4.92;;;;;;;-1.20;79.07;101369.22;1672241;84;25956;-78
2022/03/08 04:09:27;;;;;;;12.50;5.22;;;;;;;-1.23;78.89;101365.45;1663808;85;26207;-77
2022/03/08 04:11:54;;;;;;;10.35;5.60;;;;;;;-1.26;79.01;101372.20;1671434;84;27682;-77
2022/03/08 04:14:20;;;;;;;13.93;5.40;;;;;;;-1.34;79.10;101361.31;1636627;86;25842;-78
2022/03/08 04:16:46;;;;;;;11.70;4.33;;;;;;;-1.31;78.49;101370.34;1632011;86;25899;-77
2022/03/08 04:19:12;;;;;;;13.28;5.65;;;;;;;-1.31;78.49;101370.34;1672762;84;25778;-78
2022/03/08 04:21:38;;;;;;;13.70;5.70;;;;;;;-1.32;79.22;101379.61;1666828;85;26358;-77
2022/03/08 04:24:05;;;;;;;10.32;5.08;;;;;;;-1.34;79.06;101383.65;1671717;84;27630;-78
2022/03/08 04:26:31;;;;;;;10.85;4.78;;;;;;;-1.36;79.06;101386.84;1686340;84;25842;-77
2022/03/08 04:28:57;;;;;;;16.20;6.20;;;;;;;-1.45;78.94;101375.55;1679608;84;25819;-78
2022/03/08 04:31:24;;;;;;;8.05;5.00;;;;;;;-1.45;78.94;101375.55;1682871;84;25836;-77
2022/03/08 04:33:50;;;;;;;13.35;5.78;;;;;;;-1.42;78.96;101388.52;1701417;83;25794;-77
2022/03/08 04:36:16;;;;;;;10.35;5.42;;;;;;;-1.43;78.93;101388.63;1702429;83;27456;-77
2022/03/08 04:38:42;;;;;;;11.05;5.10;;;;;;;-1.49;78.60;101379.77;1672771;84;25979;-79
2022/03/08 04:41:08;;;;;;;11.30;4.42;;;;;;;-1.44;78.73;101393.48;1671585;84;25925;-78
2022/03/08 04:43:35;;;;;;;12.03;5.28;;;;;;;-1.46;78.63;101393.59;1677084;84;25903;-78
2022/03/08 04:46:01;;;;;;;11.68;4.97;;;;;;;-1.54;78.77;101391.03;1670005;84;25895;-78
2022/03/08 04:48:27;;;;;;;10.60;5.80;;;;;;;-1.54;78.77;101391.03;1693003;83;28093;-77
2022/03/08 04:50:53;;;;;;;15.03;5.65;;;;;;;-1.55;78.92;101384.93;1695823;84;25863;-77
2022/03/08 04:53:19;;;;;;;15.18;7.05;;;;;;;-1.53;79.09;101384.37;1690367;83;26502;-78
2022/03/08 04:55:46;;;;;;;13.10;7.00;;;;;;;-1.58;79.22;101378.07;1682670;84;25931;-77
2022/03/08 04:58:12;;;;;;;14.73;7.60;;;;;;;-1.52;79.26;101384.77;1682116;83;26566;-77
2022/03/08 05:00:38;;;;;;;13.62;6.67;;;;;;;-1.52;79.40;101390.02;1688914;84;27567;-77
2022/03/08 05:03:04;;;;;;;15.15;8.35;;;;;;;-1.51;79.32;101389.52;1676778;85;25947;-77
2022/03/08 05:05:33;;;;;;;13.62;6.70;;;;;;;-1.56;79.24;101383.22;1688268;84;25764;-78
2022/03/08 05:07:59;;;;;;;13.68;7.05;;;;;;;-1.53;79.12;101395.34;1684466;83;27892;-77
2022/03/08 05:10:26;;;;;;;12.98;6.92;;;;;;;-1.57;79.02;101390.28;1680634;84;25784;-77
2022/03/08 05:12:52;;;;;;;13.25;6.42;;;;;;;-1.52;79.03;101393.95;1684264;83;28461;-77
2022/03/08 05:15:18;;;;;;;13.90;7.00;;;;;;;-1.52;79.03;101393.95;1693427;83;25975;-77
2022/03/08 05:17:44;;;;;;;10.90;6.20;;;;;;;-1.53;79.25;101401.45;1697477;83;25966;-77
2022/03/08 05:20:11;;;;;;;13.48;7.00;;;;;;;-1.53;79.38;101405.84;1692850;83;25885;-77
2022/03/08 05:22:38;;;;;;;12.70;6.28;;;;;;;-1.52;79.32;101406.23;1706767;83;26455;-78
2022/03/08 05:25:05;;;;;;;16.52;6.90;;;;;;;-1.51;79.24;101417.96;1702615;83;28699;-77
2022/03/08 05:27:31;;;;;;;12.88;7.42;;;;;;;-1.52;79.11;101418.91;1701673;83;25789;-77
2022/03/08 05:29:58;;;;;;;14.87;7.37;;;;;;;-1.54;79.10;101433.06;1707795;83;25942;-76
2022/03/08 05:32:24;;;;;;;16.60;6.97;;;;;;;-1.59;79.02;101424.99;1702869;83;26543;-77
2022/03/08 05:34:50;;;;;;;13.75;7.22;;;;;;;-1.69;78.70;101407.23;1698237;83;25814;-77
2022/03/08 05:37:16;;;;;;;14.95;6.53;;;;;;;-1.66;78.75;101417.08;1737366;81;27436;-78
2022/03/08 05:39:43;;;;;;;12.37;6.95;;;;;;;-1.64;78.99;101418.30;1737131;81;25906;-78
2022/03/08 05:42:11;;;;;;;14.55;6.65;;;;;;;-1.64;78.99;101418.30;1735212;81;25309;-77
2022/03/08 05:44:38;;;;;;;15.28;6.90;;;;;;;-1.62;79.27;101420.36;1705876;82;25848;-76
2022/03/08 05:47:06;;;;;;;14.33;6.67;;;;;;;-1.60;79.47;101420.66;1737440;81;25892;-77
2022/03/08 05:49:32;;;;;;;13.40;6.53;;;;;;;-1.63;79.73;101406.87;1740875;81;27448;-77
2022/03/08 05:51:58;;;;;;;16.37;7.35;;;;;;;-1.58;79.84;101410.91;1731711;81;25751;-80
2022/03/08 05:54:24;;;;;;;13.55;7.05;;;;;;;-1.50;80.02;101422.30;1702092;83;25830;-77
2022/03/08 05:56:51;;;;;;;13.85;7.15;;;;;;;-1.54;79.73;101419.47;1688702;84;25877;-77
2022/03/08 05:59:17;;;;;;;11.22;6.55;;;;;;;-1.50;80.03;101435.43;1690830;84;26209;-77
2022/03/08 06:01:43;;;;;;;13.38;7.30;;;;;;;-1.48;80.14;101433.56;1690688;84;27512;-78
2022/03/08 06:04:09;;;;;;;17.75;7.65;;;;;;;-1.50;80.47;101431.49;1697587;83;25782;-77
2022/03/08 06:06:38;;;;;;;15.75;6.92;;;;;;;-1.49;80.75;101432.31;1682215;84;25827;-77
2022/03/08 06:09:04;;;;;;;13.40;6.92;;;;;;;-1.51;80.80;101429.78;1677385;84;26211;-77
2022/03/08 06:11:30;;;;;;;17.32;7.40;;;;;;;-1.57;80.91;101441.51;1733341;81;25470;-78
2022/03/08 06:13:56;;;;;;;13.50;6.72;;;;;;;-1.60;81.05;101453.95;1735463;81;28524;-77
2022/03/08 06:16:23;;;;;;;15.23;6.95;;;;;;;-1.72;81.60;101457.30;1736616;81;25759;-77
2022/03/08 06:18:49;;;;;;;18.00;7.58;;;;;;;-1.72;81.60;101457.30;1732895;81;26580;-77
2022/03/08 06:21:15;;;;;;;19.02;6.85;;;;;;;-1.72;82.04;101466.48;1730993;82;26551;-78
2022/03/08 06:23:41;;;;;;;13.72;6.25;;;;;;;-1.72;82.04;101466.48;1729943;81;25769;-77
2022/03/08 06:26:08;;;;;;;14.28;6.70;;;;;;;-1.71;82.36;101469.02;1733554;82;27451;-77
2022/03/08 06:28:34;;;;;;;14.68;6.45;;;;;;;-1.66;82.66;101483.20;1732727;81;25743;-78
2022/03/08 06:31:01;;;;;;;13.60;6.00;;;;;;;-1.64;83.11;101473.00;1730459;81;25836;-77
2022/03/08 06:33:27;;;;;;;12.82;6.10;;;;;;;-1.62;84.34;101466.33;1737004;81;26732;-77
2022/03/08 06:35:53;;;;;;;13.38;8.33;;;;;;;-1.62;84.34;101466.33;1736543;81;25817;-76
2022/03/08 06:38:19;;;;;;;17.80;9.70;;;;;;;-1.61;84.74;101475.45;1743812;81;27622;-77
2022/03/08 06:40:46;;;;;;;19.35;10.32;;;;;;;-1.64;85.68;101466.89;1732911;81;25755;-77
2022/03/08 06:43:12;;;;;;;19.30;11.63;;;;;;;-1.69;85.50;101475.03;1699319;83;25777;-77
2022/03/08 06:45:38;;;;;;;19.60;11.63;;;;;;;-1.71;85.73;101475.58;1683085;84;25852;-77
2022/03/08 06:48:05;;;;;;;26.35;11.53;;;;;;;-1.72;86.34;101467.34;1730381;81;25861;-78
2022/03/08 06:50:31;;;;;;;23.00;11.55;;;;;;;-1.76;87.03;101467.60;1736365;81;28294;-78
2022/03/08 06:52:58;;;;;;;23.60;14.50;;;;;;;-1.86;86.97;101463.81;1737621;81;25909;-77
2022/03/08 06:55:25;;;;;;;24.07;13.20;;;;;;;-1.86;86.97;101463.81;1730955;81;25875;-77
2022/03/08 06:57:52;;;;;;;30.68;15.45;;;;;;;-1.79;87.25;101475.64;1703281;83;25845;-76
2022/03/08 07:00:20;;;;;;;26.80;14.20;;;;;;;-1.78;87.40;101483.45;1691700;84;25914;-77
2022/03/08 07:02:46;;;;;;;21.30;11.48;;;;;;;-1.76;87.50;101499.97;1688280;84;27450;-78
2022/03/08 07:05:12;;;;;;;25.05;12.70;;;;;;;-1.78;88.10;101501.84;1736198;81;25892;-76
2022/03/08 07:07:39;;;;;;;21.30;13.03;;;;;;;-1.86;88.80;101503.20;1738072;81;26475;-76
2022/03/08 07:10:07;;;;;;;14.95;8.93;;;;;;;-1.86;88.78;101518.95;1731771;81;26486;-77
2022/03/08 07:12:34;;;;;;;17.42;9.50;;;;;;;-1.89;88.99;101518.66;1699591;83;25831;-77
2022/03/08 07:15:00;;;;;;;19.77;10.28;;;;;;;-1.98;89.15;101513.05;1706805;83;27634;-77
2022/03/08 07:17:26;;;;;;;19.40;10.98;;;;;;;-1.94;89.71;101513.26;1683543;84;25848;-76
2022/03/08 07:19:52;;;;;;;24.18;12.85;;;;;;;-1.96;90.42;101515.98;1688776;84;25736;-77
2022/03/08 07:22:18;;;;;;;21.45;11.45;;;;;;;-1.97;90.66;101509.05;1740720;81;26569;-76
2022/03/08 07:24:45;;;;;;;19.60;11.10;;;;;;;-1.95;90.63;101512.89;1732325;81;25731;-77
2022/03/08 07:27:11;;;;;;;17.73;9.20;;;;;;;-1.95;90.63;101512.89;1737544;81;27440;-77
2022/03/08 07:29:39;;;;;;;20.15;10.53;;;;;;;-1.94;90.95;101513.26;1728780;81;25927;-78
2022/03/08 07:32:06;;;;;;;24.77;12.90;;;;;;;-1.91;91.15;101521.83;1737101;81;26010;-77
2022/03/08 07:34:33;;;;;;;13.90;8.63;;;;;;;-1.91;91.15;101521.83;1739260;81;26930;-77
2022/03/08 07:36:59;;;;;;;23.27;11.80;;;;;;;-1.87;91.06;101522.49;1699446;83;25860;-77
2022/03/08 07:39:25;;;;;;;18.80;11.33;;;;;;;-1.82;91.64;101519.16;1686695;83;27470;-77
2022/03/08 07:41:51;;;;;;;19.60;10.63;;;;;;;-1.82;92.06;101524.41;1688366;83;25827;-76
2022/03/08 07:44:17;;;;;;;20.48;11.75;;;;;;;-1.73;91.97;101531.75;1686476;83;26650;-77
2022/03/08 07:46:44;;;;;;;18.42;11.15;;;;;;;-1.73;91.97;101531.75;1683388;83;26518;-78
2022/03/08 07:49:10;;;;;;;21.07;12.88;;;;;;;-1.70;92.50;101531.13;1693917;83;25783;-77
2022/03/08 07:51:36;;;;;;;22.35;12.35;;;;;;;-1.67;92.06;101536.69;1693636;84;27524;-76
2022/03/08 07:54:02;;;;;;;22.37;12.23;;;;;;;-1.62;92.14;101538.56;1689678;83;25804;-78
2022/03/08 07:56:28;;;;;;;24.43;13.45;;;;;;;-1.58;92.28;101538.31;1676986;85;25834;-78
2022/03/08 07:58:56;;;;;;;26.33;13.28;;;;;;;-1.47;92.10;101537.70;1695206;83;26511;-77
2022/03/08 08:01:22;;;;;;;20.40;12.03;;;;;;;-1.47;92.10;101537.70;1671507;84;25819;-79
2022/03/08 08:03:49;;;;;;;21.95;12.18;;;;;;;-1.41;91.87;101534.72;1687677;83;28258;-78
2022/03/08 08:06:15;;;;;;;20.68;12.50;;;;;;;-1.34;91.68;101529.95;1697844;83;25806;-78
2022/03/08 08:08:42;;;;;;;18.37;11.68;;;;;;;-1.32;91.53;101516.26;1678966;84;25820;-77
2022/03/08 08:11:08;;;;;;;20.57;11.50;;;;;;;-1.24;91.61;101535.91;1731270;81;25967;-77
2022/03/08 08:13:35;;;;;;;24.63;13.58;;;;;;;-1.24;91.61;101535.91;1731988;81;26520;-78
2022/03/08 08:16:01;;;;;;;23.52;13.40;;;;;;;-1.24;91.10;101538.53;1696611;83;28462;-77
2022/03/08 08:18:28;;;;;;;24.87;13.38;;;;;;;-1.19;91.04;101543.06;1683216;84;25564;-78
2022/03/08 08:20:54;;;;;;;19.52;12.23;;;;;;;-1.16;91.00;101542.91;1730110;81;25876;-78
2022/03/08 08:23:20;;;;;;;20.20;13.30;;;;;;;-1.15;90.92;101536.69;1727055;81;25791;-78
2022/03/08 08:25:46;;;;;;;21.73;13.58;;;;;;;-1.09;90.72;101536.82;1732342;82;25839;-77
2022/03/08 08:28:13;;;;;;;23.40;15.55;;;;;;;-1.04;90.76;101544.80;1730632;81;27454;-77
2022/03/08 08:30:39;;;;;;;35.28;18.90;;;;;;;-1.05;90.84;101529.95;1734657;81;26492;-77
2022/03/08 08:33:05;;;;;;;35.52;18.17;;;;;;;-0.96;91.16;101535.13;1701955;83;25856;-78
2022/03/08 08:35:31;;;;;;;39.45;18.48;;;;;;;-0.95;90.90;101536.38;1684177;84;25755;-77
2022/03/08 08:37:58;;;;;;;36.13;19.05;;;;;;;-0.93;90.90;101535.81;1680403;84;26028;-78
2022/03/08 08:40:24;;;;;;;42.17;19.65;;;;;;;-0.89;90.62;101525.49;1680864;84;27476;-77
2022/03/08 08:42:50;;;;;;;35.17;17.77;;;;;;;-0.88;90.65;101513.20;1696520;83;25893;-77
2022/03/08 08:45:16;;;;;;;41.75;20.62;;;;;;;-0.84;90.81;101517.33;1670364;84;26372;-78
2022/03/08 08:47:42;;;;;;;40.88;19.73;;;;;;;-0.84;90.61;101510.30;1700687;83;25960;-77
2022/03/08 08:50:09;;;;;;;41.73;21.27;;;;;;;-0.81;90.55;101510.55;1677597;84;25940;-77
2022/03/08 08:52:35;;;;;;;47.67;22.82;;;;;;;-0.80;90.69;101510.48;1709324;83;27520;-77
2022/03/08 08:55:02;;;;;;;41.58;22.05;;;;;;;-0.73;90.86;101508.33;1669308;85;25781;-77
2022/03/08 08:57:28;;;;;;;39.42;18.75;;;;;;;-0.73;90.86;101508.33;1701466;81;25824;-77
2022/03/08 08:59:55;;;;;;;40.70;20.95;;;;;;;-0.67;90.58;101501.84;1671803;84;25876;-77
2022/03/08 09:02:21;;;;;;;41.73;20.62;;;;;;;-0.53;90.18;101492.16;1694873;83;26521;-77
2022/03/08 09:04:47;;;;;;;44.83;21.40;;;;;;;-0.53;90.18;101492.16;1685783;83;27493;-77
2022/03/08 09:07:14;;;;;;;34.65;16.93;;;;;;;-0.43;90.23;101492.45;1696655;83;25876;-77
2022/03/08 09:09:40;;;;;;;32.88;18.23;;;;;;;-0.27;90.11;101491.86;1697200;84;25805;-78
2022/03/08 09:12:07;;;;;;;36.35;18.35;;;;;;;-0.18;89.71;101488.19;1690026;83;26532;-77
2022/03/08 09:14:33;;;;;;;31.10;16.20;;;;;;;-0.07;90.14;101496.27;1686599;84;25806;-77
2022/03/08 09:16:59;;;;;;;29.15;16.93;;;;;;;0.06;90.00;101482.30;1685367;83;27474;-76
2022/03/08 09:19:26;;;;;;;21.42;13.68;;;;;;;0.16;89.99;101487.34;1702434;83;25854;-77
2022/03/08 09:21:52;;;;;;;27.15;12.98;;;;;;;0.27;89.41;101487.50;1687681;83;26049;-78
2022/03/08 09:24:19;;;;;;;23.00;12.60;;;;;;;0.33;89.23;101487.09;1690323;83;25822;-77
2022/03/08 09:26:46;;;;;;;22.65;12.63;;;;;;;0.42;89.03;101489.98;1688249;83;25915;-77
2022/03/08 09:29:12;;;;;;;19.85;11.63;;;;;;;0.48;89.25;101484.31;1693615;83;27481;-78
2022/03/08 09:31:38;;;;;;;17.77;10.32;;;;;;;0.60;89.01;101491.39;1684016;84;26442;-77
2022/03/08 09:34:07;;;;;;;16.70;9.78;;;;;;;0.69;88.61;101478.08;1692641;84;25780;-78
2022/03/08 09:36:33;;;;;;;19.32;11.73;;;;;;;0.79;88.13;101481.31;1689242;83;26285;-77
2022/03/08 09:39:00;;;;;;;19.07;9.78;;;;;;;0.86;87.67;101478.26;1690912;83;25898;-77
2022/03/08 09:41:27;;;;;;;17.67;10.28;;;;;;;0.95;87.54;101467.09;1686707;83;27571;-78
2022/03/08 09:43:54;;;;;;;11.18;7.45;;;;;;;1.06;87.46;101465.89;1687352;83;25867;-79
2022/03/08 09:46:22;;;;;;;12.85;8.15;;;;;;;1.14;86.81;101461.77;1687644;84;25999;-78
2022/03/08 09:48:49;;;;;;;12.37;8.48;;;;;;;1.20;86.12;101460.49;1699259;83;25914;-78
2022/03/08 09:51:16;;;;;;;16.07;7.35;;;;;;;1.24;86.24;101454.91;1689345;83;25792;-77
2022/03/08 09:53:44;;;;;;;10.58;6.87;;;;;;;1.32;85.48;101445.15;1686206;83;28258;-77
2022/03/08 09:56:11;;;;;;;8.38;6.20;;;;;;;1.36;85.06;101440.87;1693497;83;26598;-77
2022/03/08 09:58:40;;;;;;;8.53;6.47;;;;;;;1.39;84.44;101431.90;1670952;84;25759;-77
2022/03/08 10:01:06;;;;;;;9.75;6.47;;;;;;;1.43;84.52;101440.79;1697444;83;25945;-78
2022/03/08 10:03:43;;;;;;;10.65;6.87;;;;;;;1.50;84.24;101437.23;1697322;83;26146;-77
2022/03/08 10:06:11;;;;;;;11.73;6.58;;;;;;;1.56;84.00;101437.66;1701620;83;27513;-77
2022/03/08 10:08:38;;;;;;;10.38;6.40;;;;;;;1.67;83.69;101426.32;1679064;84;25913;-77
2022/03/08 10:11:09;;;;;;;9.05;5.45;;;;;;;1.74;82.78;101426.26;1731434;81;25309;-76
2022/03/08 10:13:42;;;;;;;8.68;5.37;;;;;;;1.82;83.37;101426.55;1687565;83;25938;-77
2022/03/08 10:16:16;;;;;;;8.00;6.05;;;;;;;1.98;81.63;101425.81;1697553;83;25897;-78
2022/03/08 10:18:46;;;;;;;7.92;5.17;;;;;;;2.06;81.72;101418.16;1701853;83;27554;-78
2022/03/08 10:21:35;;;;;;;10.45;6.12;;;;;;;2.16;80.96;101423.13;1669489;84;45361;-77
2022/03/08 10:24:18;;;;;;;8.68;5.22;;;;;;;2.21;80.81;101410.90;1697859;83;25829;-78
2022/03/08 10:26:58;;;;;;;7.17;5.70;;;;;;;2.23;80.57;101406.34;1697257;83;26612;-77
2022/03/08 10:29:36;;;;;;;7.58;5.35;;;;;;;2.29;80.69;101405.41;1694518;83;26621;-77
2022/03/08 10:32:19;;;;;;;8.33;5.00;;;;;;;2.40;80.26;101405.92;1700321;83;27477;-76
2022/03/08 10:34:54;;;;;;;8.80;5.67;;;;;;;2.43;79.17;101408.83;1675183;84;25842;-77
2022/03/08 10:37:24;;;;;;;9.83;6.75;;;;;;;2.46;78.66;101408.61;1674665;85;26055;-78
2022/03/08 10:39:54;;;;;;;8.50;5.15;;;;;;;2.47;79.08;101411.59;1689163;83;25990;-76
2022/03/08 10:42:25;;;;;;;8.18;5.67;;;;;;;2.54;78.64;101409.72;1684070;84;25816;-77
2022/03/08 10:45:07;;;;;;;11.03;7.00;;;;;;;2.73;79.03;101407.83;1692333;84;27496;-77
2022/03/08 10:47:50;;;;;;;9.43;5.65;;;;;;;2.81;78.33;101405.44;1665862;85;26125;-77
2022/03/08 10:50:20;;;;;;;10.18;5.72;;;;;;;2.85;77.50;101402.44;1689900;83;25854;-77
2022/03/08 10:52:51;;;;;;;7.70;5.83;;;;;;;2.90;76.70;101399.45;1692919;84;26528;-78
2022/03/08 10:55:22;;;;;;;9.93;6.45;;;;;;;2.97;76.94;101399.34;1683995;84;25837;-77
2022/03/08 10:57:54;;;;;;;10.40;6.22;;;;;;;3.04;75.92;101396.56;1691491;84;27475;-76
2022/03/08 11:00:40;;;;;;;7.90;5.33;;;;;;;3.09;76.27;101393.09;1692314;84;26137;-79
2022/03/08 11:03:18;;;;;;;8.58;5.85;;;;;;;3.14;74.71;101395.72;1689804;84;25834;-79
2022/03/08 11:05:47;;;;;;;8.85;5.78;;;;;;;3.18;73.51;101398.14;1693830;83;26555;-78
2022/03/08 11:08:15;;;;;;;8.13;5.37;;;;;;;3.20;74.27;101390.45;1665592;85;25892;-77
2022/03/08 11:10:43;;;;;;;8.15;5.22;;;;;;;3.32;74.40;101389.47;1666272;85;28340;-78
2022/03/08 11:13:12;;;;;;;7.97;5.10;;;;;;;3.44;73.30;101395.14;1666029;85;26035;-77
2022/03/08 11:15:40;;;;;;;8.40;5.12;;;;;;;3.55;73.22;101392.45;1665830;85;25968;-77
2022/03/08 11:18:12;;;;;;;8.28;5.90;;;;;;;3.68;73.76;101394.96;1638792;86;26577;-77
2022/03/08 11:20:43;;;;;;;8.60;6.17;;;;;;;3.84;73.17;101404.70;1688429;84;26478;-77